sensor_id;sensor_type;location;lat;lon;timestamp;temperature;humidity
70928;SHT31;58587;53.034;18.576;2022-09-09T09:53:03;16.05;85.92
70928;SHT31;58587;53.034;18.576;2022-09-09T09:55:31;16.05;86.06
70928;SHT31;58587;53.034;18.576;2022-09-09T09:58:03;16.06;85.86
70928;SHT31;58587;53.034;18.576;2022-09-09T10:00:29;16.09;85.99
70928;SHT31;58587;53.034;18.576;2022-09-09T10:03:02;16.05;85.68
70928;SHT31;58587;53.034;18.576;2022-09-09T10:05:45;16.12;86.60
70928;SHT31;58587;53.034;18.576;2022-09-09T10:08:27;16.19;86.71
70928;SHT31;58587;53.034;18.576;2022-09-09T10:19:16;16.38;86.24
70928;SHT31;58587;53.034;18.576;2022-09-09T10:22:11;16.48;86.43
70928;SHT31;58587;53.034;18.576;2022-09-09T10:28:19;16.60;85.57
70928;SHT31;58587;53.034;18.576;2022-09-09T10:31:25;16.70;85.81
70928;SHT31;58587;53.034;18.576;2022-09-09T10:36:51;16.80;85.02
70928;SHT31;58587;53.034;18.576;2022-09-09T10:39:40;16.85;84.82
70928;SHT31;58587;53.034;18.576;2022-09-09T10:42:18;16.84;85.29
70928;SHT31;58587;53.034;18.576;2022-09-09T10:45:17;16.87;85.01
70928;SHT31;58587;53.034;18.576;2022-09-09T10:47:59;16.81;84.91
70928;SHT31;58587;53.034;18.576;2022-09-09T10:50:51;16.80;85.07
70928;SHT31;58587;53.034;18.576;2022-09-09T10:54:00;16.84;84.47
70928;SHT31;58587;53.034;18.576;2022-09-09T10:56:53;16.97;84.21
70928;SHT31;58587;53.034;18.576;2022-09-09T10:59:30;16.93;84.84
70928;SHT31;58587;53.034;18.576;2022-09-09T11:02:23;16.83;84.66
70928;SHT31;58587;53.034;18.576;2022-09-09T11:05:08;16.80;85.10
70928;SHT31;58587;53.034;18.576;2022-09-09T11:07:50;16.85;84.92
70928;SHT31;58587;53.034;18.576;2022-09-09T11:10:40;16.88;84.50
70928;SHT31;58587;53.034;18.576;2022-09-09T11:13:31;16.88;85.34
70928;SHT31;58587;53.034;18.576;2022-09-09T11:18:55;16.93;84.66
70928;SHT31;58587;53.034;18.576;2022-09-09T11:21:38;17.07;84.81
70928;SHT31;58587;53.034;18.576;2022-09-09T11:27:27;17.21;84.80
70928;SHT31;58587;53.034;18.576;2022-09-09T11:30:19;17.34;84.55
70928;SHT31;58587;53.034;18.576;2022-09-09T11:41:50;17.93;83.27
70928;SHT31;58587;53.034;18.576;2022-09-09T11:44:30;18.19;83.17
70928;SHT31;58587;53.034;18.576;2022-09-09T11:46:59;18.43;82.54
70928;SHT31;58587;53.034;18.576;2022-09-09T11:49:43;18.80;82.49
70928;SHT31;58587;53.034;18.576;2022-09-09T11:52:25;19.10;81.10
70928;SHT31;58587;53.034;18.576;2022-09-09T11:54:54;19.25;80.67
70928;SHT31;58587;53.034;18.576;2022-09-09T11:57:26;19.26;79.69
70928;SHT31;58587;53.034;18.576;2022-09-09T12:00:03;19.56;78.34
70928;SHT31;58587;53.034;18.576;2022-09-09T12:02:31;20.43;77.56
70928;SHT31;58587;53.034;18.576;2022-09-09T12:05:09;21.18;76.01
70928;SHT31;58587;53.034;18.576;2022-09-09T12:10:34;21.73;71.78
70928;SHT31;58587;53.034;18.576;2022-09-09T12:13:22;21.47;71.83
70928;SHT31;58587;53.034;18.576;2022-09-09T12:15:56;21.40;71.92
70928;SHT31;58587;53.034;18.576;2022-09-09T12:18:41;21.23;70.84
70928;SHT31;58587;53.034;18.576;2022-09-09T12:24:11;21.13;69.51
70928;SHT31;58587;53.034;18.576;2022-09-09T12:32:04;21.45;71.08
70928;SHT31;58587;53.034;18.576;2022-09-09T12:37:35;22.37;67.91
70928;SHT31;58587;53.034;18.576;2022-09-09T12:40:53;22.37;68.16
70928;SHT31;58587;53.034;18.576;2022-09-09T12:42:51;22.10;68.07
70928;SHT31;58587;53.034;18.576;2022-09-09T12:45:18;21.89;67.33
70928;SHT31;58587;53.034;18.576;2022-09-09T12:47:49;21.79;66.49
70928;SHT31;58587;53.034;18.576;2022-09-09T12:50:22;21.97;67.20
70928;SHT31;58587;53.034;18.576;2022-09-09T12:52:52;22.08;67.33
70928;SHT31;58587;53.034;18.576;2022-09-09T12:55:27;21.90;65.76
70928;SHT31;58587;53.034;18.576;2022-09-09T12:57:53;21.83;67.23
70928;SHT31;58587;53.034;18.576;2022-09-09T13:00:21;21.69;67.31
70928;SHT31;58587;53.034;18.576;2022-09-09T13:02:53;21.67;68.97
70928;SHT31;58587;53.034;18.576;2022-09-09T13:05:24;22.48;65.60
70928;SHT31;58587;53.034;18.576;2022-09-09T13:07:50;23.49;65.60
70928;SHT31;58587;53.034;18.576;2022-09-09T13:10:24;24.79;59.21
70928;SHT31;58587;53.034;18.576;2022-09-09T13:12:52;24.48;59.57
70928;SHT31;58587;53.034;18.576;2022-09-09T13:15:22;24.10;60.29
70928;SHT31;58587;53.034;18.576;2022-09-09T13:17:53;23.87;58.75
70928;SHT31;58587;53.034;18.576;2022-09-09T13:20:20;23.66;58.99
70928;SHT31;58587;53.034;18.576;2022-09-09T13:22:48;23.53;60.62
70928;SHT31;58587;53.034;18.576;2022-09-09T13:28:20;22.89;65.40
70928;SHT31;58587;53.034;18.576;2022-09-09T13:30:56;22.59;64.04
70928;SHT31;58587;53.034;18.576;2022-09-09T13:36:06;22.47;65.45
70928;SHT31;58587;53.034;18.576;2022-09-09T13:38:36;22.47;65.54
70928;SHT31;58587;53.034;18.576;2022-09-09T13:41:07;22.35;66.29
70928;SHT31;58587;53.034;18.576;2022-09-09T13:43:44;22.18;65.68
70928;SHT31;58587;53.034;18.576;2022-09-09T13:51:40;22.88;63.35
70928;SHT31;58587;53.034;18.576;2022-09-09T13:54:08;23.63;61.17
70928;SHT31;58587;53.034;18.576;2022-09-09T13:56:34;24.79;59.30
70928;SHT31;58587;53.034;18.576;2022-09-09T13:59:00;25.77;55.32
70928;SHT31;58587;53.034;18.576;2022-09-09T14:01:26;25.37;55.36
70928;SHT31;58587;53.034;18.576;2022-09-09T14:03:52;25.56;56.48
70928;SHT31;58587;53.034;18.576;2022-09-09T14:06:18;26.43;54.09
70928;SHT31;58587;53.034;18.576;2022-09-09T14:08:44;27.07;52.35
70928;SHT31;58587;53.034;18.576;2022-09-09T14:11:12;27.20;52.70
70928;SHT31;58587;53.034;18.576;2022-09-09T14:13:38;27.14;51.90
70928;SHT31;58587;53.034;18.576;2022-09-09T14:16:03;27.47;50.19
70928;SHT31;58587;53.034;18.576;2022-09-09T14:18:29;28.02;49.54
70928;SHT31;58587;53.034;18.576;2022-09-09T14:20:54;27.44;49.77
70928;SHT31;58587;53.034;18.576;2022-09-09T14:23:20;26.62;49.92
70928;SHT31;58587;53.034;18.576;2022-09-09T14:25:47;26.14;51.66
70928;SHT31;58587;53.034;18.576;2022-09-09T14:28:14;25.95;52.97
70928;SHT31;58587;53.034;18.576;2022-09-09T14:30:41;26.08;52.60
70928;SHT31;58587;53.034;18.576;2022-09-09T14:33:08;26.17;53.00
70928;SHT31;58587;53.034;18.576;2022-09-09T14:35:34;26.24;52.35
70928;SHT31;58587;53.034;18.576;2022-09-09T14:38:01;26.08;52.32
70928;SHT31;58587;53.034;18.576;2022-09-09T14:40:27;25.92;52.44
70928;SHT31;58587;53.034;18.576;2022-09-09T14:42:53;25.84;54.05
70928;SHT31;58587;53.034;18.576;2022-09-09T14:45:18;25.70;54.32
70928;SHT31;58587;53.034;18.576;2022-09-09T14:47:45;25.63;54.27
70928;SHT31;58587;53.034;18.576;2022-09-09T14:50:10;25.41;54.08
70928;SHT31;58587;53.034;18.576;2022-09-09T14:52:37;25.12;54.76
70928;SHT31;58587;53.034;18.576;2022-09-09T14:55:03;24.95;55.41
70928;SHT31;58587;53.034;18.576;2022-09-09T14:57:28;24.63;56.49
70928;SHT31;58587;53.034;18.576;2022-09-09T14:59:54;24.21;57.84
70928;SHT31;58587;53.034;18.576;2022-09-09T15:02:19;23.90;57.73
70928;SHT31;58587;53.034;18.576;2022-09-09T15:04:44;23.60;59.18
70928;SHT31;58587;53.034;18.576;2022-09-09T15:07:11;23.37;60.07
70928;SHT31;58587;53.034;18.576;2022-09-09T15:09:36;23.06;60.53
70928;SHT31;58587;53.034;18.576;2022-09-09T15:12:02;22.76;61.70
70928;SHT31;58587;53.034;18.576;2022-09-09T15:14:28;22.52;61.57
70928;SHT31;58587;53.034;18.576;2022-09-09T15:16:53;22.20;63.00
70928;SHT31;58587;53.034;18.576;2022-09-09T15:19:18;21.96;63.75
70928;SHT31;58587;53.034;18.576;2022-09-09T15:21:44;21.76;63.95
70928;SHT31;58587;53.034;18.576;2022-09-09T15:24:09;21.50;64.58
70928;SHT31;58587;53.034;18.576;2022-09-09T15:26:35;21.35;65.15
70928;SHT31;58587;53.034;18.576;2022-09-09T15:29:03;20.99;66.77
70928;SHT31;58587;53.034;18.576;2022-09-09T15:31:31;20.78;68.09
70928;SHT31;58587;53.034;18.576;2022-09-09T15:33:58;20.61;68.14
70928;SHT31;58587;53.034;18.576;2022-09-09T15:36:34;20.47;68.81
70928;SHT31;58587;53.034;18.576;2022-09-09T15:39:00;20.23;69.39
70928;SHT31;58587;53.034;18.576;2022-09-09T15:41:26;20.07;69.31
70928;SHT31;58587;53.034;18.576;2022-09-09T15:43:56;19.90;70.04
70928;SHT31;58587;53.034;18.576;2022-09-09T15:46:33;19.74;70.53
70928;SHT31;58587;53.034;18.576;2022-09-09T15:49:07;19.59;71.50
70928;SHT31;58587;53.034;18.576;2022-09-09T15:51:34;19.53;70.89
70928;SHT31;58587;53.034;18.576;2022-09-09T15:54:00;19.46;71.27
70928;SHT31;58587;53.034;18.576;2022-09-09T15:56:27;19.31;72.03
70928;SHT31;58587;53.034;18.576;2022-09-09T15:58:55;19.22;72.06
70928;SHT31;58587;53.034;18.576;2022-09-09T16:01:20;19.12;72.32
70928;SHT31;58587;53.034;18.576;2022-09-09T16:03:46;19.12;72.29
70928;SHT31;58587;53.034;18.576;2022-09-09T16:06:16;19.01;73.07
70928;SHT31;58587;53.034;18.576;2022-09-09T16:08:44;18.95;73.95
70928;SHT31;58587;53.034;18.576;2022-09-09T16:11:14;18.90;73.36
70928;SHT31;58587;53.034;18.576;2022-09-09T16:13:41;18.84;73.37
70928;SHT31;58587;53.034;18.576;2022-09-09T16:16:06;18.75;73.59
70928;SHT31;58587;53.034;18.576;2022-09-09T16:18:52;18.63;73.71
70928;SHT31;58587;53.034;18.576;2022-09-09T16:21:29;18.60;73.67
70928;SHT31;58587;53.034;18.576;2022-09-09T16:23:56;18.54;74.47
70928;SHT31;58587;53.034;18.576;2022-09-09T16:26:22;18.38;75.12
70928;SHT31;58587;53.034;18.576;2022-09-09T16:28:48;18.34;75.28
70928;SHT31;58587;53.034;18.576;2022-09-09T16:31:19;18.27;75.18
70928;SHT31;58587;53.034;18.576;2022-09-09T16:33:45;18.22;75.04
70928;SHT31;58587;53.034;18.576;2022-09-09T16:36:20;18.09;75.34
70928;SHT31;58587;53.034;18.576;2022-09-09T16:38:45;18.10;75.05
70928;SHT31;58587;53.034;18.576;2022-09-09T16:41:12;18.03;76.02
70928;SHT31;58587;53.034;18.576;2022-09-09T16:43:38;17.97;75.57
70928;SHT31;58587;53.034;18.576;2022-09-09T16:46:16;17.96;75.90
70928;SHT31;58587;53.034;18.576;2022-09-09T16:48:42;17.87;76.06
70928;SHT31;58587;53.034;18.576;2022-09-09T16:51:13;17.79;76.40
70928;SHT31;58587;53.034;18.576;2022-09-09T16:53:39;17.74;76.44
70928;SHT31;58587;53.034;18.576;2022-09-09T16:56:08;17.66;77.16
70928;SHT31;58587;53.034;18.576;2022-09-09T16:58:35;17.62;77.25
70928;SHT31;58587;53.034;18.576;2022-09-09T17:01:02;17.64;77.23
70928;SHT31;58587;53.034;18.576;2022-09-09T17:03:28;17.56;77.47
70928;SHT31;58587;53.034;18.576;2022-09-09T17:05:54;17.48;77.76
70928;SHT31;58587;53.034;18.576;2022-09-09T17:08:20;17.41;77.60
70928;SHT31;58587;53.034;18.576;2022-09-09T17:10:45;17.38;78.08
70928;SHT31;58587;53.034;18.576;2022-09-09T17:13:11;17.35;77.96
70928;SHT31;58587;53.034;18.576;2022-09-09T17:15:41;17.34;78.07
70928;SHT31;58587;53.034;18.576;2022-09-09T17:18:11;17.31;78.35
70928;SHT31;58587;53.034;18.576;2022-09-09T17:20:38;17.28;78.41
70928;SHT31;58587;53.034;18.576;2022-09-09T17:23:05;17.15;79.55
70928;SHT31;58587;53.034;18.576;2022-09-09T17:25:31;17.20;79.14
70928;SHT31;58587;53.034;18.576;2022-09-09T17:27:56;17.14;79.07
70928;SHT31;58587;53.034;18.576;2022-09-09T17:30:24;17.11;78.93
70928;SHT31;58587;53.034;18.576;2022-09-09T17:32:49;17.00;79.14
70928;SHT31;58587;53.034;18.576;2022-09-09T17:35:15;16.99;79.34
70928;SHT31;58587;53.034;18.576;2022-09-09T17:37:40;17.00;79.49
70928;SHT31;58587;53.034;18.576;2022-09-09T17:40:06;16.97;79.39
70928;SHT31;58587;53.034;18.576;2022-09-09T17:42:32;16.90;79.73
70928;SHT31;58587;53.034;18.576;2022-09-09T17:44:57;16.88;80.01
70928;SHT31;58587;53.034;18.576;2022-09-09T17:47:23;16.85;79.87
70928;SHT31;58587;53.034;18.576;2022-09-09T17:49:48;16.84;80.54
70928;SHT31;58587;53.034;18.576;2022-09-09T17:52:14;16.80;80.63
70928;SHT31;58587;53.034;18.576;2022-09-09T17:54:41;16.74;80.57
70928;SHT31;58587;53.034;18.576;2022-09-09T17:57:06;16.73;80.64
70928;SHT31;58587;53.034;18.576;2022-09-09T17:59:32;16.71;80.63
70928;SHT31;58587;53.034;18.576;2022-09-09T18:01:57;16.61;81.06
70928;SHT31;58587;53.034;18.576;2022-09-09T18:04:23;16.66;80.78
70928;SHT31;58587;53.034;18.576;2022-09-09T18:06:50;16.61;80.89
70928;SHT31;58587;53.034;18.576;2022-09-09T18:09:22;16.53;81.39
70928;SHT31;58587;53.034;18.576;2022-09-09T18:11:50;16.53;81.33
70928;SHT31;58587;53.034;18.576;2022-09-09T18:14:22;16.46;81.67
70928;SHT31;58587;53.034;18.576;2022-09-09T18:16:49;16.43;81.69
70928;SHT31;58587;53.034;18.576;2022-09-09T18:19:17;16.36;82.03
70928;SHT31;58587;53.034;18.576;2022-09-09T18:21:44;16.30;82.29
70928;SHT31;58587;53.034;18.576;2022-09-09T18:24:11;16.28;82.31
70928;SHT31;58587;53.034;18.576;2022-09-09T18:26:38;16.29;82.03
70928;SHT31;58587;53.034;18.576;2022-09-09T18:29:07;16.25;82.19
70928;SHT31;58587;53.034;18.576;2022-09-09T18:31:34;16.19;82.61
70928;SHT31;58587;53.034;18.576;2022-09-09T18:34:01;16.19;82.46
70928;SHT31;58587;53.034;18.576;2022-09-09T18:36:34;16.15;83.04
70928;SHT31;58587;53.034;18.576;2022-09-09T18:39:01;16.13;82.89
70928;SHT31;58587;53.034;18.576;2022-09-09T18:41:30;16.10;82.88
70928;SHT31;58587;53.034;18.576;2022-09-09T18:43:58;16.06;82.90
70928;SHT31;58587;53.034;18.576;2022-09-09T18:46:25;16.08;83.11
70928;SHT31;58587;53.034;18.576;2022-09-09T18:48:51;16.06;83.06
70928;SHT31;58587;53.034;18.576;2022-09-09T18:51:19;15.99;83.43
70928;SHT31;58587;53.034;18.576;2022-09-09T18:54:06;15.95;83.62
70928;SHT31;58587;53.034;18.576;2022-09-09T18:56:34;15.96;83.76
70928;SHT31;58587;53.034;18.576;2022-09-09T18:59:01;15.99;83.40
70928;SHT31;58587;53.034;18.576;2022-09-09T19:01:27;15.96;83.54
70928;SHT31;58587;53.034;18.576;2022-09-09T19:03:54;15.94;83.52
70928;SHT31;58587;53.034;18.576;2022-09-09T19:06:23;15.91;83.83
70928;SHT31;58587;53.034;18.576;2022-09-09T19:08:50;15.96;83.80
70928;SHT31;58587;53.034;18.576;2022-09-09T19:11:18;15.95;83.39
70928;SHT31;58587;53.034;18.576;2022-09-09T19:13:55;15.88;83.81
70928;SHT31;58587;53.034;18.576;2022-09-09T19:16:23;15.86;83.63
70928;SHT31;58587;53.034;18.576;2022-09-09T19:18:49;15.82;84.01
70928;SHT31;58587;53.034;18.576;2022-09-09T19:21:21;15.82;84.04
70928;SHT31;58587;53.034;18.576;2022-09-09T19:23:56;15.84;84.04
70928;SHT31;58587;53.034;18.576;2022-09-09T19:26:24;15.79;84.17
70928;SHT31;58587;53.034;18.576;2022-09-09T19:28:50;15.79;84.01
70928;SHT31;58587;53.034;18.576;2022-09-09T19:31:17;15.77;84.23
70928;SHT31;58587;53.034;18.576;2022-09-09T19:33:44;15.78;84.11
70928;SHT31;58587;53.034;18.576;2022-09-09T19:36:13;15.81;84.13
70928;SHT31;58587;53.034;18.576;2022-09-09T19:38:40;15.79;83.86
70928;SHT31;58587;53.034;18.576;2022-09-09T19:41:08;15.79;84.23
70928;SHT31;58587;53.034;18.576;2022-09-09T19:43:33;15.77;84.29
70928;SHT31;58587;53.034;18.576;2022-09-09T19:46:04;15.75;84.62
70928;SHT31;58587;53.034;18.576;2022-09-09T19:48:34;15.71;84.68
70928;SHT31;58587;53.034;18.576;2022-09-09T19:51:07;15.71;84.59
70928;SHT31;58587;53.034;18.576;2022-09-09T19:53:45;15.71;84.84
70928;SHT31;58587;53.034;18.576;2022-09-09T19:56:11;15.68;84.88
70928;SHT31;58587;53.034;18.576;2022-09-09T19:58:38;15.69;84.69
70928;SHT31;58587;53.034;18.576;2022-09-09T20:03:30;15.69;84.90
70928;SHT31;58587;53.034;18.576;2022-09-09T20:05:57;15.68;84.90
70928;SHT31;58587;53.034;18.576;2022-09-09T20:08:22;15.67;84.98
70928;SHT31;58587;53.034;18.576;2022-09-09T20:10:54;15.69;84.97
70928;SHT31;58587;53.034;18.576;2022-09-09T20:13:19;15.65;85.24
70928;SHT31;58587;53.034;18.576;2022-09-09T20:15:46;15.65;85.29
70928;SHT31;58587;53.034;18.576;2022-09-09T20:18:12;15.64;85.26
70928;SHT31;58587;53.034;18.576;2022-09-09T20:20:41;15.67;85.27
70928;SHT31;58587;53.034;18.576;2022-09-09T20:23:07;15.67;85.05
70928;SHT31;58587;53.034;18.576;2022-09-09T20:25:35;15.67;85.63
70928;SHT31;58587;53.034;18.576;2022-09-09T20:28:01;15.65;85.23
70928;SHT31;58587;53.034;18.576;2022-09-09T20:30:27;15.64;85.25
70928;SHT31;58587;53.034;18.576;2022-09-09T20:32:52;15.65;85.41
70928;SHT31;58587;53.034;18.576;2022-09-09T20:35:17;15.69;85.08
70928;SHT31;58587;53.034;18.576;2022-09-09T20:37:43;15.65;85.22
70928;SHT31;58587;53.034;18.576;2022-09-09T20:40:08;15.67;85.40
70928;SHT31;58587;53.034;18.576;2022-09-09T20:42:34;15.67;85.38
70928;SHT31;58587;53.034;18.576;2022-09-09T20:44:59;15.64;85.45
70928;SHT31;58587;53.034;18.576;2022-09-09T20:47:24;15.68;85.33
70928;SHT31;58587;53.034;18.576;2022-09-09T20:49:50;15.67;85.34
70928;SHT31;58587;53.034;18.576;2022-09-09T20:52:16;15.67;85.53
70928;SHT31;58587;53.034;18.576;2022-09-09T20:54:44;15.64;85.62
70928;SHT31;58587;53.034;18.576;2022-09-09T20:57:11;15.64;85.65
70928;SHT31;58587;53.034;18.576;2022-09-09T20:59:37;15.64;85.50
70928;SHT31;58587;53.034;18.576;2022-09-09T21:02:03;15.62;85.60
70928;SHT31;58587;53.034;18.576;2022-09-09T21:04:29;15.64;85.47
70928;SHT31;58587;53.034;18.576;2022-09-09T21:06:55;15.64;85.53
70928;SHT31;58587;53.034;18.576;2022-09-09T21:09:21;15.62;85.72
70928;SHT31;58587;53.034;18.576;2022-09-09T21:11:49;15.62;85.63
70928;SHT31;58587;53.034;18.576;2022-09-09T21:14:18;15.59;85.94
70928;SHT31;58587;53.034;18.576;2022-09-09T21:16:43;15.59;85.86
70928;SHT31;58587;53.034;18.576;2022-09-09T21:19:10;15.58;85.99
70928;SHT31;58587;53.034;18.576;2022-09-09T21:21:35;15.58;86.17
70928;SHT31;58587;53.034;18.576;2022-09-09T21:24:01;15.59;85.81
70928;SHT31;58587;53.034;18.576;2022-09-09T21:26:27;15.55;86.34
70928;SHT31;58587;53.034;18.576;2022-09-09T21:28:52;15.57;86.08
70928;SHT31;58587;53.034;18.576;2022-09-09T21:31:19;15.54;86.25
70928;SHT31;58587;53.034;18.576;2022-09-09T21:33:45;15.55;86.34
70928;SHT31;58587;53.034;18.576;2022-09-09T21:36:11;15.54;86.28
70928;SHT31;58587;53.034;18.576;2022-09-09T21:38:37;15.53;86.28
70928;SHT31;58587;53.034;18.576;2022-09-09T21:41:11;15.53;86.35
70928;SHT31;58587;53.034;18.576;2022-09-09T21:43:37;15.54;86.09
70928;SHT31;58587;53.034;18.576;2022-09-09T21:46:07;15.55;86.25
70928;SHT31;58587;53.034;18.576;2022-09-09T21:48:32;15.58;86.36
70928;SHT31;58587;53.034;18.576;2022-09-09T21:51:03;15.54;86.30
70928;SHT31;58587;53.034;18.576;2022-09-09T21:53:29;15.50;86.47
70928;SHT31;58587;53.034;18.576;2022-09-09T21:56:00;15.50;86.48
70928;SHT31;58587;53.034;18.576;2022-09-09T21:58:25;15.51;86.60
70928;SHT31;58587;53.034;18.576;2022-09-09T22:00:51;15.48;86.28
70928;SHT31;58587;53.034;18.576;2022-09-09T22:03:16;15.51;86.27
70928;SHT31;58587;53.034;18.576;2022-09-09T22:05:43;15.50;86.49
70928;SHT31;58587;53.034;18.576;2022-09-09T22:08:10;15.47;86.58
70928;SHT31;58587;53.034;18.576;2022-09-09T22:10:41;15.48;86.59
70928;SHT31;58587;53.034;18.576;2022-09-09T22:13:07;15.47;86.39
70928;SHT31;58587;53.034;18.576;2022-09-09T22:15:33;15.43;86.82
70928;SHT31;58587;53.034;18.576;2022-09-09T22:18:00;15.45;86.82
70928;SHT31;58587;53.034;18.576;2022-09-09T22:20:31;15.43;86.54
70928;SHT31;58587;53.034;18.576;2022-09-09T22:22:58;15.41;86.73
70928;SHT31;58587;53.034;18.576;2022-09-09T22:25:25;15.40;86.97
70928;SHT31;58587;53.034;18.576;2022-09-09T22:27:51;15.38;86.84
70928;SHT31;58587;53.034;18.576;2022-09-09T22:30:19;15.43;86.57
70928;SHT31;58587;53.034;18.576;2022-09-09T22:32:45;15.41;86.78
70928;SHT31;58587;53.034;18.576;2022-09-09T22:35:11;15.43;87.09
70928;SHT31;58587;53.034;18.576;2022-09-09T22:37:37;15.41;86.79
70928;SHT31;58587;53.034;18.576;2022-09-09T22:40:02;15.41;86.75
70928;SHT31;58587;53.034;18.576;2022-09-09T22:42:27;15.41;86.79
70928;SHT31;58587;53.034;18.576;2022-09-09T22:44:54;15.40;86.56
70928;SHT31;58587;53.034;18.576;2022-09-09T22:47:19;15.35;87.12
70928;SHT31;58587;53.034;18.576;2022-09-09T22:49:45;15.33;87.25
70928;SHT31;58587;53.034;18.576;2022-09-09T22:52:11;15.33;87.03
70928;SHT31;58587;53.034;18.576;2022-09-09T22:54:36;15.31;87.24
70928;SHT31;58587;53.034;18.576;2022-09-09T22:57:02;15.31;87.30
70928;SHT31;58587;53.034;18.576;2022-09-09T22:59:27;15.27;87.31
70928;SHT31;58587;53.034;18.576;2022-09-09T23:01:53;15.27;87.48
70928;SHT31;58587;53.034;18.576;2022-09-09T23:04:20;15.31;87.30
70928;SHT31;58587;53.034;18.576;2022-09-09T23:06:46;15.23;87.71
70928;SHT31;58587;53.034;18.576;2022-09-09T23:09:12;15.23;87.67
70928;SHT31;58587;53.034;18.576;2022-09-09T23:11:38;15.23;87.63
70928;SHT31;58587;53.034;18.576;2022-09-09T23:14:06;15.24;87.79
70928;SHT31;58587;53.034;18.576;2022-09-09T23:16:42;15.27;87.51
70928;SHT31;58587;53.034;18.576;2022-09-09T23:19:11;15.27;87.95
70928;SHT31;58587;53.034;18.576;2022-09-09T23:21:38;15.19;88.00
